Gabriella — OJHP — position and weather

sailwx.info

Track history (hours):
 
Tides and Currents Weather Stations Pressure Air Temp Water Temp Dewpoint Dewpoint Depression Visibility Wind Speed Wind Dir Waves Ship Positions

Gabriella

Last reported at 2017-Apr-26 21:57 UTC. Time now 2017-Apr-26 23:36 UTC.
Position N 59°37' E 021°15'.

Length 172 m; draft 6.5 m.

Type: Ship (hazmat cat A). MMSI: 230361000.

Date/timePositionNaut miles runAvg speedWind from/ knotsBaromVisibWave heightAir tempDewpointWater temp
2017-Apr-26 21:57N 59°37' E 021°15'1117.3
2017-Apr-26 21:20N 59°35' E 021°36'617.2
2017-Apr-26 21:00N 59°34' E 021°47'3617.2
2017-Apr-26 18:54N 59°39' E 022°58'717.3
2017-Apr-26 18:30N 59°40' E 023°11'917.4
2017-Apr-26 18:00N 59°42' E 023°28'917.4
2017-Apr-26 17:30N 59°45' E 023°44'917.4
2017-Apr-26 17:00N 59°47' E 024°01'16 1.4
2017-Apr-26 05:30N 59°53' E 024°30'917.7
2017-Apr-26 05:00N 59°49' E 024°14'917.8
2017-Apr-26 04:30N 59°47' E 023°57'917.8
2017-Apr-26 04:00N 59°44' E 023°40'917.8
2017-Apr-26 03:30N 59°42' E 023°23'917.8
2017-Apr-26 03:00N 59°40' E 023°06'3317.8
2017-Apr-26 01:09N 59°33' E 022°02'317.7
2017-Apr-26 01:00N 59°32' E 021°57'917.5
2017-Apr-26 00:31N 59°32' E 021°40'1117.8
2017-Apr-25 23:53N 59°35' E 021°19'5112.9
2017-Apr-25 19:53N 60°02' E 019°52'718.2
2017-Apr-25 19:30N 59°56' E 019°42'918.1
2017-Apr-25 19:01N 59°50' E 019°30'917.8
2017-Apr-25 18:31N 59°45' E 019°15'917.9
2017-Apr-25 18:01N 59°41' E 018°59'612.3
2017-Apr-25 17:30N 59°37' E 018°50'612.6
2017-Apr-25 17:00N 59°34' E 018°39'710.2
2017-Apr-25 16:17N 59°30' E 018°28'312.1
2017-Apr-25 16:00N 59°27' E 018°24'510.3
2017-Apr-25 15:30N 59°22' E 018°27'510.8
2017-Apr-25 15:00N 59°22' E 018°16'511.0
2017-Apr-25 14:30N 59°19' E 018°07'0 0.4
2017-Apr-25 13:29N 59°19' E 018°06'0 0.0
2017-Apr-25 12:59N 59°19' E 018°06'0 0.0
2017-Apr-25 12:29N 59°19' E 018°06'0 0.0
2017-Apr-25 11:59N 59°19' E 018°06'0 0.0
2017-Apr-25 11:29N 59°19' E 018°06'0 0.0
2017-Apr-25 10:59N 59°19' E 018°06'0 0.0
2017-Apr-25 10:29N 59°19' E 018°06'0 0.0
2017-Apr-25 09:59N 59°19' E 018°06'0 0.0
2017-Apr-25 09:29N 59°19' E 018°06'0 0.0
2017-Apr-25 08:59N 59°19' E 018°06'0 0.0
2017-Apr-25 08:29N 59°19' E 018°06'0 0.0
2017-Apr-25 08:00N 59°19' E 018°06'2 4.5
2017-Apr-25 07:30N 59°19' E 018°10'611.8
2017-Apr-25 07:00N 59°23' E 018°20'4 6.9
2017-Apr-25 06:29N 59°24' E 018°27'4 9.3
2017-Apr-25 06:00N 59°28' E 018°26'610.6
2017-Apr-25 05:27N 59°32' E 018°35'510.8
2017-Apr-25 05:00N 59°35' E 018°43'612.6
2017-Apr-25 04:30N 59°39' E 018°53'612.1
2017-Apr-25 04:01N 59°42' E 019°02'714.9
2017-Apr-25 03:30N 59°45' E 019°16'815.2
2017-Apr-25 03:00N 59°51' E 019°25'814.9
2017-Apr-25 02:30N 59°56' E 019°37'12 8.5
2017-Apr-25 01:05N 60°04' E 019°55'115.2
2017-Apr-25 01:00N 60°03' E 019°53'9815.7
2017-Apr-24 18:45N 59°39' E 023°03'417.5
2017-Apr-24 18:30N 59°40' E 023°11'917.4
2017-Apr-24 18:00N 59°42' E 023°28'917.4
2017-Apr-24 17:30N 59°45' E 023°44'917.4
2017-Apr-24 17:00N 59°49' E 023°59'916.9
2017-Apr-24 16:29N 59°55' E 024°13'815.1
2017-Apr-24 15:56N 59°58' E 024°29'12 1.3
2017-Apr-24 06:14N 59°59' E 024°53'617.0
2017-Apr-24 05:52N 59°56' E 024°42'717.2
2017-Apr-24 05:25N 59°52' E 024°29'817.8
2017-Apr-24 05:00N 59°49' E 024°15'917.8
2017-Apr-24 04:30N 59°47' E 023°58'917.8
2017-Apr-24 04:00N 59°44' E 023°41'917.8
2017-Apr-24 03:30N 59°42' E 023°24'917.8
2017-Apr-24 03:00N 59°40' E 023°06'2817.8
2017-Apr-24 01:25N 59°34' E 022°12'717.8
2017-Apr-24 01:01N 59°33' E 021°58'917.7
2017-Apr-24 00:30N 59°32' E 021°40'917.8
2017-Apr-24 00:01N 59°34' E 021°23'5313.1
2017-Apr-23 19:56N 60°02' E 019°53'818.6
2017-Apr-23 19:30N 59°56' E 019°42'918.6
2017-Apr-23 19:00N 59°50' E 019°29'918.3
2017-Apr-23 18:30N 59°44' E 019°14'918.1
2017-Apr-23 18:00N 59°41' E 018°58'611.9
2017-Apr-23 17:31N 59°37' E 018°49'612.5
2017-Apr-23 17:01N 59°34' E 018°38'710.1
2017-Apr-23 16:20N 59°30' E 018°28'412.2
2017-Apr-23 16:00N 59°26' E 018°23'5 9.2
2017-Apr-23 15:30N 59°21' E 018°25'510.7
2017-Apr-23 15:01N 59°21' E 018°15'5 5.3
2017-Apr-23 14:01N 59°19' E 018°06'0 0.0
2017-Apr-23 13:28N 59°19' E 018°06'0 0.0
2017-Apr-23 12:58N 59°19' E 018°06'0 0.0
2017-Apr-23 12:28N 59°19' E 018°06'0 0.0
2017-Apr-23 11:58N 59°19' E 018°06'0 0.0
2017-Apr-23 11:28N 59°19' E 018°06'0 0.0
2017-Apr-23 10:58N 59°19' E 018°06'0 0.0
2017-Apr-23 10:28N 59°19' E 018°06'0 0.0
2017-Apr-23 09:58N 59°19' E 018°06'0 0.0
2017-Apr-23 09:28N 59°19' E 018°06'0 0.0
2017-Apr-23 08:58N 59°19' E 018°06'0 0.0
2017-Apr-23 08:28N 59°19' E 018°06'0 0.0
2017-Apr-23 08:00N 59°19' E 018°06'2 4.8
2017-Apr-23 07:30N 59°19' E 018°10'611.9
2017-Apr-23 07:00N 59°23' E 018°20'3 6.8
2017-Apr-23 06:30N 59°24' E 018°27'5 9.2
2017-Apr-23 06:01N 59°28' E 018°26'610.5
2017-Apr-23 05:27N 59°32' E 018°34'510.9
2017-Apr-23 05:00N 59°35' E 018°43'612.5
2017-Apr-23 04:30N 59°38' E 018°53'612.1
2017-Apr-23 04:00N 59°42' E 019°03'815.1
2017-Apr-23 03:30N 59°45' E 019°16'815.1
2017-Apr-23 03:00N 59°49' E 019°28'815.3
2017-Apr-23 02:30N 59°55' E 019°39'10 6.9
2017-Apr-23 00:59N 60°03' E 019°53'5016.1
2017-Apr-22 21:54N 59°36' E 021°17'717.4
2017-Apr-22 21:30N 59°34' E 021°30'917.4
2017-Apr-22 21:00N 59°32' E 021°47'3617.3
2017-Apr-22 18:57N 59°39' E 022°56'817.4
2017-Apr-22 18:30N 59°40' E 023°11'917.4
2017-Apr-22 18:00N 59°42' E 023°28'917.4
2017-Apr-22 17:30N 59°45' E 023°44'917.4
2017-Apr-22 17:00N 59°47' E 024°01'10 0.8
2017-Apr-22 05:09N 59°50' E 024°20'217.8
2017-Apr-22 05:00N 59°49' E 024°15'917.8
2017-Apr-22 04:30N 59°46' E 023°58'917.8
2017-Apr-22 04:00N 59°44' E 023°41'917.8
2017-Apr-22 03:30N 59°42' E 023°24'917.8
2017-Apr-22 03:00N 59°40' E 023°07'2817.8
2017-Apr-22 01:27N 59°34' E 022°13'817.8
2017-Apr-22 01:01N 59°32' E 021°58'917.7
2017-Apr-22 00:31N 59°33' E 021°41'917.9
2017-Apr-22 00:01N 59°34' E 021°23'1117.9
2017-Apr-21 23:24N 59°36' E 021°02'3617.6
2017-Apr-21 21:20N 59°53' E 019°59'817.8
2017-Apr-21 20:53N 60°01' E 019°53'4 5.5
2017-Apr-21 20:07N 60°05' E 019°56'314.8
2017-Apr-21 19:55N 60°02' E 019°53'819.2
2017-Apr-21 19:30N 59°56' E 019°42'919.2
2017-Apr-21 19:00N 59°50' E 019°29'918.9
2017-Apr-21 18:31N 59°44' E 019°13'918.3
2017-Apr-21 18:00N 59°40' E 018°57'611.5
2017-Apr-21 17:30N 59°37' E 018°48'712.2
2017-Apr-21 16:58N 59°33' E 018°37'610.2
2017-Apr-21 16:20N 59°29' E 018°27'6 9.9
2017-Apr-21 15:46N 59°24' E 018°27'4 7.4
2017-Apr-21 15:13N 59°22' E 018°19'312.4
2017-Apr-21 15:00N 59°21' E 018°14'5 9.7
2017-Apr-21 14:31N 59°19' E 018°06'0 0.1
2017-Apr-21 13:30N 59°19' E 018°06'0 0.0
2017-Apr-21 13:00N 59°19' E 018°06'0 0.0
2017-Apr-21 12:30N 59°19' E 018°06'0 0.0
2017-Apr-21 12:00N 59°19' E 018°06'0 0.0
2017-Apr-21 11:30N 59°19' E 018°06'0 0.0
2017-Apr-21 11:00N 59°19' E 018°06'0 0.0
2017-Apr-21 10:30N 59°19' E 018°06'0 0.0
2017-Apr-21 10:00N 59°19' E 018°06'0 0.0
2017-Apr-21 09:30N 59°19' E 018°06'0 0.0
2017-Apr-21 09:00N 59°19' E 018°06'0 0.0
2017-Apr-21 08:30N 59°19' E 018°06'0 0.0
2017-Apr-21 08:00N 59°19' E 018°06'3 5.1
2017-Apr-21 07:30N 59°19' E 018°11'611.8
2017-Apr-21 07:00N 59°23' E 018°21'3 5.3
2017-Apr-21 06:26N 59°24' E 018°25'4 9.2
2017-Apr-21 06:00N 59°28' E 018°26'610.5
2017-Apr-21 05:25N 59°33' E 018°35'510.9
2017-Apr-21 05:00N 59°35' E 018°43'612.5
2017-Apr-21 04:31N 59°38' E 018°53'612.1
2017-Apr-21 04:01N 59°42' E 019°02'815.1
2017-Apr-21 03:31N 59°45' E 019°16'715.0
2017-Apr-21 03:01N 59°49' E 019°28'815.1
2017-Apr-21 02:29N 59°55' E 019°39'10 7.1
2017-Apr-21 01:00N 60°03' E 019°53'6116.1
2017-Apr-20 21:14N 59°33' E 021°38'4417.3
2017-Apr-20 18:42N 59°40' E 023°05'317.3
2017-Apr-20 18:30N 59°40' E 023°11'917.3
2017-Apr-20 18:00N 59°42' E 023°27'917.4
2017-Apr-20 17:30N 59°45' E 023°44'917.5
2017-Apr-20 17:00N 59°47' E 024°01'8 0.7
2017-Apr-20 05:02N 59°49' E 024°17'117.6
2017-Apr-20 04:57N 59°49' E 024°14'817.7
2017-Apr-20 04:30N 59°47' E 023°59'917.7
2017-Apr-20 04:00N 59°45' E 023°42'917.7
2017-Apr-20 03:30N 59°42' E 023°25'917.7
2017-Apr-20 03:00N 59°40' E 023°08'3217.8
2017-Apr-20 01:14N 59°33' E 022°07'417.8
2017-Apr-20 01:00N 59°32' E 021°59'917.7
2017-Apr-20 00:30N 59°32' E 021°42'1017.8
2017-Apr-19 23:58N 59°34' E 021°23'5414.4
2017-Apr-19 20:12N 60°05' E 019°56'313.1
2017-Apr-19 19:58N 60°02' E 019°53'918.6
2017-Apr-19 19:30N 59°56' E 019°42'918.7
2017-Apr-19 19:00N 59°49' E 019°29'918.5
2017-Apr-19 18:31N 59°44' E 019°14'918.1
2017-Apr-19 18:00N 59°40' E 018°58'611.7
2017-Apr-19 17:30N 59°37' E 018°49'612.4
2017-Apr-19 17:00N 59°34' E 018°38'710.2
2017-Apr-19 16:18N 59°29' E 018°27'6 9.9
2017-Apr-19 15:40N 59°23' E 018°27'4 8.3
2017-Apr-19 15:11N 59°22' E 018°19'212.5
2017-Apr-19 15:00N 59°21' E 018°15'510.4
2017-Apr-19 14:31N 59°19' E 018°06'0 0.0
2017-Apr-19 13:25N 59°19' E 018°06'0 0.0
2017-Apr-19 12:58N 59°19' E 018°06'0 0.0
2017-Apr-19 12:28N 59°19' E 018°06'0 0.0
2017-Apr-19 11:58N 59°19' E 018°06'0 0.0
2017-Apr-19 11:28N 59°19' E 018°06'0 0.0
2017-Apr-19 10:58N 59°19' E 018°06'0 0.0
2017-Apr-19 10:28N 59°19' E 018°06'0 0.0
2017-Apr-19 09:55N 59°19' E 018°06'0 0.1
2017-Apr-19 09:28N 59°19' E 018°06'0 0.2
2017-Apr-19 08:58N 59°19' E 018°06'0 0.0
2017-Apr-19 08:28N 59°19' E 018°06'0 0.0
2017-Apr-19 08:01N 59°19' E 018°06'2 4.8
2017-Apr-19 07:30N 59°19' E 018°10'611.9
2017-Apr-19 07:00N 59°23' E 018°20'3 5.4
2017-Apr-19 06:25N 59°24' E 018°25'4 9.4
2017-Apr-19 06:00N 59°28' E 018°26'510.7
2017-Apr-19 05:30N 59°32' E 018°34'510.8
2017-Apr-19 05:00N 59°35' E 018°43'612.5
2017-Apr-19 04:31N 59°38' E 018°53'611.9
2017-Apr-19 04:00N 59°42' E 019°02'714.8
2017-Apr-19 03:31N 59°45' E 019°16'714.7
2017-Apr-19 03:01N 59°49' E 019°28'714.8
2017-Apr-19 02:30N 59°54' E 019°38'13 9.6
2017-Apr-19 01:08N 60°04' E 019°56'215.0
2017-Apr-19 00:59N 60°03' E 019°53'5016.0
2017-Apr-18 21:53N 59°36' E 021°17'617.3
2017-Apr-18 21:30N 59°34' E 021°29'917.3
2017-Apr-18 21:00N 59°32' E 021°46'4017.3
2017-Apr-18 18:41N 59°39' E 023°04'417.7
2017-Apr-18 18:29N 59°40' E 023°11'817.1
2017-Apr-18 18:00N 59°42' E 023°27'917.0
2017-Apr-18 17:30N 59°44' E 023°43'917.1
2017-Apr-18 17:00N 59°47' E 023°59'14 1.2
2017-Apr-18 05:21N 59°51' E 024°26'617.5
2017-Apr-18 05:00N 59°49' E 024°15'917.6
2017-Apr-18 04:30N 59°47' E 023°58'917.6
2017-Apr-18 04:01N 59°44' E 023°41'917.6
2017-Apr-18 03:31N 59°42' E 023°25'917.7
2017-Apr-18 03:01N 59°40' E 023°07'917.8
2017-Apr-18 02:30N 59°38' E 022°50'2217.8
2017-Apr-18 01:15N 59°33' E 022°07'417.8
2017-Apr-18 01:01N 59°32' E 021°59'917.8
2017-Apr-18 00:31N 59°32' E 021°41'917.9
2017-Apr-18 00:00N 59°34' E 021°24'5413.1
2017-Apr-17 19:55N 60°02' E 019°53'818.4
2017-Apr-17 19:30N 59°57' E 019°42'918.4
2017-Apr-17 19:00N 59°50' E 019°30'918.1
2017-Apr-17 18:30N 59°45' E 019°15'918.0
2017-Apr-17 18:01N 59°41' E 018°59'611.9
2017-Apr-17 17:30N 59°37' E 018°50'712.2
2017-Apr-17 16:58N 59°34' E 018°38'810.2
2017-Apr-17 16:13N 59°29' E 018°27'311.7
2017-Apr-17 15:57N 59°26' E 018°23'510.3
2017-Apr-17 15:30N 59°22' E 018°27'5 9.9
2017-Apr-17 15:01N 59°22' E 018°17'7 6.3
2017-Apr-17 13:58N 59°19' E 018°06'0 0.0
2017-Apr-17 13:28N 59°19' E 018°06'0 0.0
2017-Apr-17 12:58N 59°19' E 018°06'0 0.0
2017-Apr-17 12:28N 59°19' E 018°06'0 0.0
2017-Apr-17 11:58N 59°19' E 018°06'0 0.0
2017-Apr-17 11:28N 59°19' E 018°06'0 0.0
2017-Apr-17 10:58N 59°19' E 018°06'0 0.0
2017-Apr-17 10:19N 59°19' E 018°06'0 0.0
2017-Apr-17 09:58N 59°19' E 018°06'0 0.0
2017-Apr-17 09:28N 59°19' E 018°06'0 0.0
2017-Apr-17 08:58N 59°19' E 018°06'0 0.0
2017-Apr-17 08:28N 59°19' E 018°06'0 0.0
2017-Apr-17 08:00N 59°19' E 018°06'3 6.1
2017-Apr-17 07:30N 59°20' E 018°12'611.4
2017-Apr-17 07:00N 59°22' E 018°22'3 4.8
2017-Apr-17 06:26N 59°24' E 018°25'4 9.4
2017-Apr-17 06:00N 59°28' E 018°26'510.3
2017-Apr-17 05:28N 59°32' E 018°34'510.8
2017-Apr-17 05:00N 59°35' E 018°43'612.3
2017-Apr-17 04:31N 59°38' E 018°53'611.9
2017-Apr-17 04:00N 59°42' E 019°02'714.8
2017-Apr-17 03:30N 59°45' E 019°16'714.6
2017-Apr-17 03:00N 59°49' E 019°28'715.0
2017-Apr-17 02:30N 59°54' E 019°38'11 7.5
2017-Apr-17 01:00N 60°03' E 019°53'  
Track history (hours):
 
Tides and Currents Weather Stations Pressure Air Temp Water Temp Dewpoint Dewpoint Depression Visibility Wind Speed Wind Dir Waves Ship Positions

Gabriella

Last reported at 2017-Apr-26 21:57 UTC. Time now 2017-Apr-26 23:36 UTC.
Position N 59°37' E 021°15'.

Length 172 m; draft 6.5 m.

Type: Ship (hazmat cat A). MMSI: 230361000.

Date/timePositionNaut miles runAvg speedWind from/ knotsBaromVisibWave heightAir tempDewpointWater temp
2017-Apr-26 21:57N 59°37' E 021°15'1117.3
2017-Apr-26 21:20N 59°35' E 021°36'617.2
2017-Apr-26 21:00N 59°34' E 021°47'3617.2
2017-Apr-26 18:54N 59°39' E 022°58'717.3
2017-Apr-26 18:30N 59°40' E 023°11'917.4
2017-Apr-26 18:00N 59°42' E 023°28'917.4
2017-Apr-26 17:30N 59°45' E 023°44'917.4
2017-Apr-26 17:00N 59°47' E 024°01'16 1.4
2017-Apr-26 05:30N 59°53' E 024°30'917.7
2017-Apr-26 05:00N 59°49' E 024°14'917.8
2017-Apr-26 04:30N 59°47' E 023°57'917.8
2017-Apr-26 04:00N 59°44' E 023°40'917.8
2017-Apr-26 03:30N 59°42' E 023°23'917.8
2017-Apr-26 03:00N 59°40' E 023°06'3317.8
2017-Apr-26 01:09N 59°33' E 022°02'317.7
2017-Apr-26 01:00N 59°32' E 021°57'917.5
2017-Apr-26 00:31N 59°32' E 021°40'1117.8
2017-Apr-25 23:53N 59°35' E 021°19'5112.9
2017-Apr-25 19:53N 60°02' E 019°52'718.2
2017-Apr-25 19:30N 59°56' E 019°42'918.1
2017-Apr-25 19:01N 59°50' E 019°30'917.8
2017-Apr-25 18:31N 59°45' E 019°15'917.9
2017-Apr-25 18:01N 59°41' E 018°59'612.3
2017-Apr-25 17:30N 59°37' E 018°50'612.6
2017-Apr-25 17:00N 59°34' E 018°39'710.2
2017-Apr-25 16:17N 59°30' E 018°28'312.1
2017-Apr-25 16:00N 59°27' E 018°24'510.3
2017-Apr-25 15:30N 59°22' E 018°27'510.8
2017-Apr-25 15:00N 59°22' E 018°16'511.0
2017-Apr-25 14:30N 59°19' E 018°07'0 0.4
2017-Apr-25 13:29N 59°19' E 018°06'0 0.0
2017-Apr-25 12:59N 59°19' E 018°06'0 0.0
2017-Apr-25 12:29N 59°19' E 018°06'0 0.0
2017-Apr-25 11:59N 59°19' E 018°06'0 0.0
2017-Apr-25 11:29N 59°19' E 018°06'0 0.0
2017-Apr-25 10:59N 59°19' E 018°06'0 0.0
2017-Apr-25 10:29N 59°19' E 018°06'0 0.0
2017-Apr-25 09:59N 59°19' E 018°06'0 0.0
2017-Apr-25 09:29N 59°19' E 018°06'0 0.0
2017-Apr-25 08:59N 59°19' E 018°06'0 0.0
2017-Apr-25 08:29N 59°19' E 018°06'0 0.0
2017-Apr-25 08:00N 59°19' E 018°06'2 4.5
2017-Apr-25 07:30N 59°19' E 018°10'611.8
2017-Apr-25 07:00N 59°23' E 018°20'4 6.9
2017-Apr-25 06:29N 59°24' E 018°27'4 9.3
2017-Apr-25 06:00N 59°28' E 018°26'610.6
2017-Apr-25 05:27N 59°32' E 018°35'510.8
2017-Apr-25 05:00N 59°35' E 018°43'612.6
2017-Apr-25 04:30N 59°39' E 018°53'612.1
2017-Apr-25 04:01N 59°42' E 019°02'714.9
2017-Apr-25 03:30N 59°45' E 019°16'815.2
2017-Apr-25 03:00N 59°51' E 019°25'814.9
2017-Apr-25 02:30N 59°56' E 019°37'12 8.5
2017-Apr-25 01:05N 60°04' E 019°55'115.2
2017-Apr-25 01:00N 60°03' E 019°53'9815.7
2017-Apr-24 18:45N 59°39' E 023°03'417.5
2017-Apr-24 18:30N 59°40' E 023°11'917.4
2017-Apr-24 18:00N 59°42' E 023°28'917.4
2017-Apr-24 17:30N 59°45' E 023°44'917.4
2017-Apr-24 17:00N 59°49' E 023°59'916.9
2017-Apr-24 16:29N 59°55' E 024°13'815.1
2017-Apr-24 15:56N 59°58' E 024°29'12 1.3
2017-Apr-24 06:14N 59°59' E 024°53'617.0
2017-Apr-24 05:52N 59°56' E 024°42'717.2
2017-Apr-24 05:25N 59°52' E 024°29'817.8
2017-Apr-24 05:00N 59°49' E 024°15'917.8
2017-Apr-24 04:30N 59°47' E 023°58'917.8
2017-Apr-24 04:00N 59°44' E 023°41'917.8
2017-Apr-24 03:30N 59°42' E 023°24'917.8
2017-Apr-24 03:00N 59°40' E 023°06'2817.8
2017-Apr-24 01:25N 59°34' E 022°12'717.8
2017-Apr-24 01:01N 59°33' E 021°58'917.7
2017-Apr-24 00:30N 59°32' E 021°40'917.8
2017-Apr-24 00:01N 59°34' E 021°23'5313.1
2017-Apr-23 19:56N 60°02' E 019°53'818.6
2017-Apr-23 19:30N 59°56' E 019°42'918.6
2017-Apr-23 19:00N 59°50' E 019°29'918.3
2017-Apr-23 18:30N 59°44' E 019°14'918.1
2017-Apr-23 18:00N 59°41' E 018°58'611.9
2017-Apr-23 17:31N 59°37' E 018°49'612.5
2017-Apr-23 17:01N 59°34' E 018°38'710.1
2017-Apr-23 16:20N 59°30' E 018°28'412.2
2017-Apr-23 16:00N 59°26' E 018°23'5 9.2
2017-Apr-23 15:30N 59°21' E 018°25'510.7
2017-Apr-23 15:01N 59°21' E 018°15'5 5.3
2017-Apr-23 14:01N 59°19' E 018°06'0 0.0
2017-Apr-23 13:28N 59°19' E 018°06'0 0.0
2017-Apr-23 12:58N 59°19' E 018°06'0 0.0
2017-Apr-23 12:28N 59°19' E 018°06'0 0.0
2017-Apr-23 11:58N 59°19' E 018°06'0 0.0
2017-Apr-23 11:28N 59°19' E 018°06'0 0.0
2017-Apr-23 10:58N 59°19' E 018°06'0 0.0
2017-Apr-23 10:28N 59°19' E 018°06'0 0.0
2017-Apr-23 09:58N 59°19' E 018°06'0 0.0
2017-Apr-23 09:28N 59°19' E 018°06'0 0.0
2017-Apr-23 08:58N 59°19' E 018°06'0 0.0
2017-Apr-23 08:28N 59°19' E 018°06'0 0.0
2017-Apr-23 08:00N 59°19' E 018°06'2 4.8
2017-Apr-23 07:30N 59°19' E 018°10'611.9
2017-Apr-23 07:00N 59°23' E 018°20'3 6.8
2017-Apr-23 06:30N 59°24' E 018°27'5 9.2
2017-Apr-23 06:01N 59°28' E 018°26'610.5
2017-Apr-23 05:27N 59°32' E 018°34'510.9
2017-Apr-23 05:00N 59°35' E 018°43'612.5
2017-Apr-23 04:30N 59°38' E 018°53'612.1
2017-Apr-23 04:00N 59°42' E 019°03'815.1
2017-Apr-23 03:30N 59°45' E 019°16'815.1
2017-Apr-23 03:00N 59°49' E 019°28'815.3
2017-Apr-23 02:30N 59°55' E 019°39'10 6.9
2017-Apr-23 00:59N 60°03' E 019°53'5016.1
2017-Apr-22 21:54N 59°36' E 021°17'717.4
2017-Apr-22 21:30N 59°34' E 021°30'917.4
2017-Apr-22 21:00N 59°32' E 021°47'3617.3
2017-Apr-22 18:57N 59°39' E 022°56'817.4
2017-Apr-22 18:30N 59°40' E 023°11'917.4
2017-Apr-22 18:00N 59°42' E 023°28'917.4
2017-Apr-22 17:30N 59°45' E 023°44'917.4
2017-Apr-22 17:00N 59°47' E 024°01'10 0.8
2017-Apr-22 05:09N 59°50' E 024°20'217.8
2017-Apr-22 05:00N 59°49' E 024°15'917.8
2017-Apr-22 04:30N 59°46' E 023°58'917.8
2017-Apr-22 04:00N 59°44' E 023°41'917.8
2017-Apr-22 03:30N 59°42' E 023°24'917.8
2017-Apr-22 03:00N 59°40' E 023°07'2817.8
2017-Apr-22 01:27N 59°34' E 022°13'817.8
2017-Apr-22 01:01N 59°32' E 021°58'917.7
2017-Apr-22 00:31N 59°33' E 021°41'917.9
2017-Apr-22 00:01N 59°34' E 021°23'1117.9
2017-Apr-21 23:24N 59°36' E 021°02'3617.6
2017-Apr-21 21:20N 59°53' E 019°59'817.8
2017-Apr-21 20:53N 60°01' E 019°53'4 5.5
2017-Apr-21 20:07N 60°05' E 019°56'314.8
2017-Apr-21 19:55N 60°02' E 019°53'819.2
2017-Apr-21 19:30N 59°56' E 019°42'919.2
2017-Apr-21 19:00N 59°50' E 019°29'918.9
2017-Apr-21 18:31N 59°44' E 019°13'918.3
2017-Apr-21 18:00N 59°40' E 018°57'611.5
2017-Apr-21 17:30N 59°37' E 018°48'712.2
2017-Apr-21 16:58N 59°33' E 018°37'610.2
2017-Apr-21 16:20N 59°29' E 018°27'6 9.9
2017-Apr-21 15:46N 59°24' E 018°27'4 7.4
2017-Apr-21 15:13N 59°22' E 018°19'312.4
2017-Apr-21 15:00N 59°21' E 018°14'5 9.7
2017-Apr-21 14:31N 59°19' E 018°06'0 0.1
2017-Apr-21 13:30N 59°19' E 018°06'0 0.0
2017-Apr-21 13:00N 59°19' E 018°06'0 0.0
2017-Apr-21 12:30N 59°19' E 018°06'0 0.0
2017-Apr-21 12:00N 59°19' E 018°06'0 0.0
2017-Apr-21 11:30N 59°19' E 018°06'0 0.0
2017-Apr-21 11:00N 59°19' E 018°06'0 0.0
2017-Apr-21 10:30N 59°19' E 018°06'0 0.0
2017-Apr-21 10:00N 59°19' E 018°06'0 0.0
2017-Apr-21 09:30N 59°19' E 018°06'0 0.0
2017-Apr-21 09:00N 59°19' E 018°06'0 0.0
2017-Apr-21 08:30N 59°19' E 018°06'0 0.0
2017-Apr-21 08:00N 59°19' E 018°06'3 5.1
2017-Apr-21 07:30N 59°19' E 018°11'611.8
2017-Apr-21 07:00N 59°23' E 018°21'3 5.3
2017-Apr-21 06:26N 59°24' E 018°25'4 9.2
2017-Apr-21 06:00N 59°28' E 018°26'610.5
2017-Apr-21 05:25N 59°33' E 018°35'510.9
2017-Apr-21 05:00N 59°35' E 018°43'612.5
2017-Apr-21 04:31N 59°38' E 018°53'612.1
2017-Apr-21 04:01N 59°42' E 019°02'815.1
2017-Apr-21 03:31N 59°45' E 019°16'715.0
2017-Apr-21 03:01N 59°49' E 019°28'815.1
2017-Apr-21 02:29N 59°55' E 019°39'10 7.1
2017-Apr-21 01:00N 60°03' E 019°53'6116.1
2017-Apr-20 21:14N 59°33' E 021°38'4417.3
2017-Apr-20 18:42N 59°40' E 023°05'317.3
2017-Apr-20 18:30N 59°40' E 023°11'917.3
2017-Apr-20 18:00N 59°42' E 023°27'917.4
2017-Apr-20 17:30N 59°45' E 023°44'917.5
2017-Apr-20 17:00N 59°47' E 024°01'8 0.7
2017-Apr-20 05:02N 59°49' E 024°17'117.6
2017-Apr-20 04:57N 59°49' E 024°14'817.7
2017-Apr-20 04:30N 59°47' E 023°59'917.7
2017-Apr-20 04:00N 59°45' E 023°42'917.7
2017-Apr-20 03:30N 59°42' E 023°25'917.7
2017-Apr-20 03:00N 59°40' E 023°08'3217.8
2017-Apr-20 01:14N 59°33' E 022°07'417.8
2017-Apr-20 01:00N 59°32' E 021°59'917.7
2017-Apr-20 00:30N 59°32' E 021°42'1017.8
2017-Apr-19 23:58N 59°34' E 021°23'5414.4
2017-Apr-19 20:12N 60°05' E 019°56'313.1
2017-Apr-19 19:58N 60°02' E 019°53'918.6
2017-Apr-19 19:30N 59°56' E 019°42'918.7
2017-Apr-19 19:00N 59°49' E 019°29'918.5
2017-Apr-19 18:31N 59°44' E 019°14'918.1
2017-Apr-19 18:00N 59°40' E 018°58'611.7
2017-Apr-19 17:30N 59°37' E 018°49'612.4
2017-Apr-19 17:00N 59°34' E 018°38'710.2
2017-Apr-19 16:18N 59°29' E 018°27'6 9.9
2017-Apr-19 15:40N 59°23' E 018°27'4 8.3
2017-Apr-19 15:11N 59°22' E 018°19'212.5
2017-Apr-19 15:00N 59°21' E 018°15'510.4
2017-Apr-19 14:31N 59°19' E 018°06'0 0.0
2017-Apr-19 13:25N 59°19' E 018°06'0 0.0
2017-Apr-19 12:58N 59°19' E 018°06'0 0.0
2017-Apr-19 12:28N 59°19' E 018°06'0 0.0
2017-Apr-19 11:58N 59°19' E 018°06'0 0.0
2017-Apr-19 11:28N 59°19' E 018°06'0 0.0
2017-Apr-19 10:58N 59°19' E 018°06'0 0.0
2017-Apr-19 10:28N 59°19' E 018°06'0 0.0
2017-Apr-19 09:55N 59°19' E 018°06'0 0.1
2017-Apr-19 09:28N 59°19' E 018°06'0 0.2
2017-Apr-19 08:58N 59°19' E 018°06'0 0.0
2017-Apr-19 08:28N 59°19' E 018°06'0 0.0
2017-Apr-19 08:01N 59°19' E 018°06'2 4.8
2017-Apr-19 07:30N 59°19' E 018°10'611.9
2017-Apr-19 07:00N 59°23' E 018°20'3 5.4
2017-Apr-19 06:25N 59°24' E 018°25'4 9.4
2017-Apr-19 06:00N 59°28' E 018°26'510.7
2017-Apr-19 05:30N 59°32' E 018°34'510.8
2017-Apr-19 05:00N 59°35' E 018°43'612.5
2017-Apr-19 04:31N 59°38' E 018°53'611.9
2017-Apr-19 04:00N 59°42' E 019°02'714.8
2017-Apr-19 03:31N 59°45' E 019°16'714.7
2017-Apr-19 03:01N 59°49' E 019°28'714.8
2017-Apr-19 02:30N 59°54' E 019°38'13 9.6
2017-Apr-19 01:08N 60°04' E 019°56'215.0
2017-Apr-19 00:59N 60°03' E 019°53'5016.0
2017-Apr-18 21:53N 59°36' E 021°17'617.3
2017-Apr-18 21:30N 59°34' E 021°29'917.3
2017-Apr-18 21:00N 59°32' E 021°46'4017.3
2017-Apr-18 18:41N 59°39' E 023°04'417.7
2017-Apr-18 18:29N 59°40' E 023°11'817.1
2017-Apr-18 18:00N 59°42' E 023°27'917.0
2017-Apr-18 17:30N 59°44' E 023°43'917.1
2017-Apr-18 17:00N 59°47' E 023°59'14 1.2
2017-Apr-18 05:21N 59°51' E 024°26'617.5
2017-Apr-18 05:00N 59°49' E 024°15'917.6
2017-Apr-18 04:30N 59°47' E 023°58'917.6
2017-Apr-18 04:01N 59°44' E 023°41'917.6
2017-Apr-18 03:31N 59°42' E 023°25'917.7
2017-Apr-18 03:01N 59°40' E 023°07'917.8
2017-Apr-18 02:30N 59°38' E 022°50'2217.8
2017-Apr-18 01:15N 59°33' E 022°07'417.8
2017-Apr-18 01:01N 59°32' E 021°59'917.8
2017-Apr-18 00:31N 59°32' E 021°41'917.9
2017-Apr-18 00:00N 59°34' E 021°24'5413.1
2017-Apr-17 19:55N 60°02' E 019°53'818.4
2017-Apr-17 19:30N 59°57' E 019°42'918.4
2017-Apr-17 19:00N 59°50' E 019°30'918.1
2017-Apr-17 18:30N 59°45' E 019°15'918.0
2017-Apr-17 18:01N 59°41' E 018°59'611.9
2017-Apr-17 17:30N 59°37' E 018°50'712.2
2017-Apr-17 16:58N 59°34' E 018°38'810.2
2017-Apr-17 16:13N 59°29' E 018°27'311.7
2017-Apr-17 15:57N 59°26' E 018°23'510.3
2017-Apr-17 15:30N 59°22' E 018°27'5 9.9
2017-Apr-17 15:01N 59°22' E 018°17'7 6.3
2017-Apr-17 13:58N 59°19' E 018°06'0 0.0
2017-Apr-17 13:28N 59°19' E 018°06'0 0.0
2017-Apr-17 12:58N 59°19' E 018°06'0 0.0
2017-Apr-17 12:28N 59°19' E 018°06'0 0.0
2017-Apr-17 11:58N 59°19' E 018°06'0 0.0
2017-Apr-17 11:28N 59°19' E 018°06'0 0.0
2017-Apr-17 10:58N 59°19' E 018°06'0 0.0
2017-Apr-17 10:19N 59°19' E 018°06'0 0.0
2017-Apr-17 09:58N 59°19' E 018°06'0 0.0
2017-Apr-17 09:28N 59°19' E 018°06'0 0.0
2017-Apr-17 08:58N 59°19' E 018°06'0 0.0
2017-Apr-17 08:28N 59°19' E 018°06'0 0.0
2017-Apr-17 08:00N 59°19' E 018°06'3 6.1
2017-Apr-17 07:30N 59°20' E 018°12'611.4
2017-Apr-17 07:00N 59°22' E 018°22'3 4.8
2017-Apr-17 06:26N 59°24' E 018°25'4 9.4
2017-Apr-17 06:00N 59°28' E 018°26'510.3
2017-Apr-17 05:28N 59°32' E 018°34'510.8
2017-Apr-17 05:00N 59°35' E 018°43'612.3
2017-Apr-17 04:31N 59°38' E 018°53'611.9
2017-Apr-17 04:00N 59°42' E 019°02'714.8
2017-Apr-17 03:30N 59°45' E 019°16'714.6
2017-Apr-17 03:00N 59°49' E 019°28'715.0
2017-Apr-17 02:30N 59°54' E 019°38'11 7.5
2017-Apr-17 01:00N 60°03' E 019°53'  

Dump ship's entire track history